createdAt,value
2018-04-29T00:00:10.987Z,997.11
2018-04-29T00:02:03.834Z,997.05
2018-04-29T00:03:03.812Z,997.09
2018-04-29T00:04:56.671Z,997.09
2018-04-29T00:05:56.644Z,997.11
2018-04-29T00:07:49.488Z,997.23
2018-04-29T00:08:49.467Z,997.26
2018-04-29T00:10:42.324Z,997.21
2018-04-29T00:11:42.292Z,997.26
2018-04-29T00:13:35.143Z,997.19
2018-04-29T00:14:35.119Z,997.13
2018-04-29T00:16:27.979Z,997.12
2018-04-29T00:17:27.944Z,997.11
2018-04-29T00:19:20.794Z,997.11
2018-04-29T00:20:20.772Z,997.07
2018-04-29T00:22:13.633Z,997.04
2018-04-29T00:23:13.599Z,997.04
2018-04-29T00:25:06.446Z,997.00
2018-04-29T00:26:06.425Z,996.95
2018-04-29T00:27:59.291Z,996.92
2018-04-29T00:28:59.257Z,996.86
2018-04-29T00:30:52.102Z,996.95
2018-04-29T00:31:52.080Z,996.98
2018-04-29T00:33:44.940Z,997.07
2018-04-29T00:34:44.909Z,997.07
2018-04-29T00:36:37.753Z,997.00
2018-04-29T00:37:37.733Z,996.99
2018-04-29T00:39:30.593Z,996.89
2018-04-29T00:40:30.562Z,996.86
2018-04-29T00:42:23.984Z,996.74
2018-04-29T00:43:23.388Z,996.71
2018-04-29T00:45:16.249Z,996.73
2018-04-29T00:46:16.209Z,996.71
2018-04-29T00:48:09.056Z,996.70
2018-04-29T00:49:09.035Z,996.72
2018-04-29T00:51:01.898Z,996.69
2018-04-29T00:52:01.868Z,996.66
2018-04-29T00:53:54.713Z,996.65
2018-04-29T00:54:54.695Z,996.62
2018-04-29T00:56:47.551Z,996.57
2018-04-29T00:57:47.520Z,996.59
2018-04-29T00:59:40.363Z,996.64
2018-04-29T01:00:40.341Z,996.59
2018-04-29T01:02:33.205Z,996.55
2018-04-29T01:03:33.170Z,996.54
2018-04-29T01:05:26.016Z,996.51
2018-04-29T01:06:25.996Z,996.51
2018-04-29T01:08:18.855Z,996.53
2018-04-29T01:09:18.820Z,996.57
2018-04-29T01:11:11.670Z,996.62
2018-04-29T01:12:11.645Z,996.66
2018-04-29T01:14:04.504Z,996.59
2018-04-29T01:15:04.472Z,996.63
2018-04-29T01:16:57.317Z,996.59
2018-04-29T01:17:57.296Z,996.58
2018-04-29T01:19:50.154Z,996.57
2018-04-29T01:20:50.121Z,996.52
2018-04-29T01:22:42.973Z,996.58
2018-04-29T01:23:42.948Z,996.56
2018-04-29T01:25:35.810Z,996.52
2018-04-29T01:26:35.773Z,996.56
2018-04-29T01:28:28.616Z,996.53
2018-04-29T01:29:28.598Z,996.47
2018-04-29T01:31:21.458Z,996.45
2018-04-29T01:32:21.421Z,996.38
2018-04-29T01:34:14.265Z,996.40
2018-04-29T01:35:14.249Z,996.38
2018-04-29T01:37:07.108Z,996.40
2018-04-29T01:38:07.069Z,996.40
2018-04-29T01:39:59.915Z,996.40
2018-04-29T01:40:59.892Z,996.44
2018-04-29T01:42:52.751Z,996.40
2018-04-29T01:43:52.720Z,996.40
2018-04-29T01:45:45.566Z,996.41
2018-04-29T01:46:45.545Z,996.34
2018-04-29T01:48:38.402Z,996.29
2018-04-29T01:49:38.367Z,996.34
2018-04-29T01:51:31.235Z,996.27
2018-04-29T01:52:31.194Z,996.26
2018-04-29T01:54:24.055Z,996.23
2018-04-29T01:55:24.018Z,996.25
2018-04-29T01:57:16.863Z,996.21
2018-04-29T01:58:16.843Z,996.18
2018-04-29T02:00:09.704Z,996.17
2018-04-29T02:01:09.663Z,996.13
2018-04-29T02:03:02.530Z,996.09
2018-04-29T02:04:02.494Z,996.11
2018-04-29T02:05:55.356Z,996.16
2018-04-29T02:06:55.320Z,996.14
2018-04-29T02:08:48.171Z,996.10
2018-04-29T02:09:48.143Z,996.13
2018-04-29T02:11:41.003Z,996.06
2018-04-29T02:12:40.966Z,996.08
2018-04-29T02:14:33.824Z,996.08
2018-04-29T02:15:33.796Z,996.06
2018-04-29T02:17:26.655Z,996.04
2018-04-29T02:18:26.618Z,995.95
2018-04-29T02:20:19.462Z,995.85
2018-04-29T02:21:19.439Z,995.86
2018-04-29T02:23:12.300Z,995.77
2018-04-29T02:24:12.264Z,995.79
2018-04-29T02:26:05.116Z,995.81
2018-04-29T02:27:05.092Z,995.87
2018-04-29T02:28:57.956Z,995.76
2018-04-29T02:29:57.920Z,995.76
2018-04-29T02:31:50.768Z,995.72
2018-04-29T02:32:50.748Z,995.68
2018-04-29T02:34:43.606Z,995.76
2018-04-29T02:35:43.569Z,995.72
2018-04-29T02:37:36.415Z,995.74
2018-04-29T02:38:36.393Z,995.75
2018-04-29T02:40:29.254Z,995.72
2018-04-29T02:41:29.218Z,995.68
2018-04-29T02:43:22.070Z,995.58
2018-04-29T02:44:22.041Z,995.51
2018-04-29T02:46:14.901Z,995.27
2018-04-29T02:47:14.866Z,995.09
2018-04-29T02:49:07.713Z,995.11
2018-04-29T02:50:07.689Z,994.99
2018-04-29T02:52:00.548Z,994.88
2018-04-29T02:53:00.513Z,994.81
2018-04-29T02:54:53.360Z,994.86
2018-04-29T02:55:53.343Z,994.92
2018-04-29T02:57:46.195Z,994.91
2018-04-29T02:58:46.161Z,994.91
2018-04-29T03:00:39.009Z,994.95
2018-04-29T03:01:38.996Z,994.96
2018-04-29T03:03:31.846Z,995.00
2018-04-29T03:04:31.812Z,995.06
2018-04-29T03:06:24.662Z,995.06
2018-04-29T03:07:24.640Z,995.10
2018-04-29T03:09:17.499Z,995.06
2018-04-29T03:10:17.464Z,994.96
2018-04-29T03:12:10.312Z,994.95
2018-04-29T03:13:10.289Z,994.89
2018-04-29T03:15:03.153Z,994.90
2018-04-29T03:16:03.114Z,994.91
2018-04-29T03:17:55.960Z,994.92
2018-04-29T03:18:55.941Z,994.94
2018-04-29T03:20:48.799Z,994.90
2018-04-29T03:21:48.765Z,994.95
2018-04-29T03:23:41.615Z,994.98
2018-04-29T03:24:41.592Z,994.97
2018-04-29T03:26:34.508Z,994.99
2018-04-29T03:27:34.428Z,994.96
2018-04-29T03:29:27.273Z,994.95
2018-04-29T03:30:27.249Z,994.94
2018-04-29T03:32:20.109Z,994.89
2018-04-29T03:33:20.074Z,994.88
2018-04-29T03:35:12.921Z,994.89
2018-04-29T03:36:12.898Z,994.88
2018-04-29T03:38:05.837Z,994.92
2018-04-29T03:39:05.730Z,994.84
2018-04-29T03:40:58.578Z,994.85
2018-04-29T03:41:58.555Z,994.87
2018-04-29T03:43:51.417Z,994.86
2018-04-29T03:44:51.381Z,994.86
2018-04-29T03:46:44.225Z,994.87
2018-04-29T03:47:44.205Z,994.89
2018-04-29T03:49:37.072Z,994.90
2018-04-29T03:50:37.030Z,994.91
2018-04-29T03:52:29.874Z,994.82
2018-04-29T03:53:29.855Z,994.78
2018-04-29T03:55:22.712Z,994.77
2018-04-29T03:56:22.677Z,994.77
2018-04-29T03:58:15.526Z,994.77
2018-04-29T03:59:15.505Z,994.77
2018-04-29T04:01:08.381Z,994.80
2018-04-29T04:02:08.346Z,994.82
2018-04-29T04:04:01.192Z,994.88
2018-04-29T04:05:01.170Z,994.90
2018-04-29T04:06:54.029Z,994.97
2018-04-29T04:07:53.995Z,994.95
2018-04-29T04:09:46.916Z,994.98
2018-04-29T04:10:46.819Z,994.98
2018-04-29T04:12:39.756Z,994.98
2018-04-29T04:13:39.648Z,995.00
2018-04-29T04:15:32.500Z,994.92
2018-04-29T04:16:32.473Z,994.93
2018-04-29T04:18:25.332Z,994.90
2018-04-29T04:19:25.302Z,994.89
2018-04-29T04:21:18.151Z,994.82
2018-04-29T04:22:18.129Z,994.83
2018-04-29T04:24:10.987Z,994.83
2018-04-29T04:25:10.952Z,994.82
2018-04-29T04:27:03.797Z,994.85
2018-04-29T04:28:03.776Z,994.84
2018-04-29T04:29:56.634Z,994.85
2018-04-29T04:30:56.599Z,994.90
2018-04-29T04:32:49.451Z,994.94
2018-04-29T04:33:49.430Z,994.94
2018-04-29T04:35:42.288Z,994.97
2018-04-29T04:36:42.254Z,994.99
2018-04-29T04:38:35.102Z,994.95
2018-04-29T04:39:35.079Z,994.90
2018-04-29T04:41:27.937Z,994.91
2018-04-29T04:42:27.905Z,994.94
2018-04-29T04:44:20.768Z,994.98
2018-04-29T04:45:20.732Z,994.92
2018-04-29T04:47:13.598Z,994.91
2018-04-29T04:48:13.568Z,994.93
2018-04-29T04:50:06.414Z,994.90
2018-04-29T04:51:06.386Z,994.94
2018-04-29T04:52:59.304Z,994.98
2018-04-29T04:53:59.255Z,994.96
2018-04-29T04:55:52.102Z,995.02
2018-04-29T04:56:52.082Z,995.09
2018-04-29T04:58:44.945Z,995.13
2018-04-29T04:59:44.919Z,995.18
2018-04-29T05:01:37.767Z,995.15
2018-04-29T05:02:37.750Z,995.22
2018-04-29T05:04:30.608Z,995.19
2018-04-29T05:05:30.577Z,995.23
2018-04-29T05:07:23.514Z,995.20
2018-04-29T05:08:23.413Z,995.25
2018-04-29T05:10:16.273Z,995.31
2018-04-29T05:11:16.244Z,995.32
2018-04-29T05:13:09.094Z,995.39
2018-04-29T05:14:09.076Z,995.41
2018-04-29T05:16:01.945Z,995.48
2018-04-29T05:17:01.907Z,995.46
2018-04-29T05:18:54.763Z,995.45
2018-04-29T05:19:54.745Z,995.43
2018-04-29T05:21:47.618Z,995.39
2018-04-29T05:22:47.582Z,995.36
2018-04-29T05:24:40.436Z,995.32
2018-04-29T05:25:40.425Z,995.29
2018-04-29T05:27:33.281Z,995.25
2018-04-29T05:28:33.254Z,995.24
2018-04-29T05:30:26.103Z,995.28
2018-04-29T05:31:26.088Z,995.23
2018-04-29T05:33:18.948Z,995.35
2018-04-29T05:34:18.918Z,995.30
2018-04-29T05:36:11.776Z,995.30
2018-04-29T05:37:11.758Z,995.28
2018-04-29T05:39:04.626Z,995.22
2018-04-29T05:40:04.595Z,995.26
2018-04-29T05:41:57.450Z,995.26
2018-04-29T05:42:57.430Z,995.18
2018-04-29T05:44:50.296Z,995.24
2018-04-29T05:45:50.355Z,995.23
2018-04-29T05:47:43.117Z,995.23
2018-04-29T05:48:43.099Z,995.24
2018-04-29T05:50:35.965Z,995.19
2018-04-29T05:51:35.935Z,995.19
2018-04-29T05:53:28.786Z,995.18
2018-04-29T05:54:28.772Z,995.23
2018-04-29T05:56:21.643Z,995.24
2018-04-29T05:57:21.613Z,995.25
2018-04-29T05:59:14.468Z,995.19
2018-04-29T06:00:14.451Z,995.21
2018-04-29T06:02:07.323Z,995.13
2018-04-29T06:03:07.295Z,995.19
2018-04-29T06:05:00.154Z,995.16
2018-04-29T06:06:00.181Z,995.10
2018-04-29T06:07:53.010Z,995.03
2018-04-29T06:08:52.983Z,995.01
2018-04-29T06:10:45.844Z,995.04
2018-04-29T06:11:45.824Z,995.05
2018-04-29T06:13:38.695Z,995.05
2018-04-29T06:14:38.674Z,995.06
2018-04-29T06:16:31.526Z,995.07
2018-04-29T06:17:31.511Z,994.95
2018-04-29T06:19:24.380Z,994.95
2018-04-29T06:20:24.416Z,995.02
2018-04-29T06:22:17.211Z,995.01
2018-04-29T06:23:17.200Z,994.91
2018-04-29T06:25:10.070Z,995.03
2018-04-29T06:26:10.142Z,995.06
2018-04-29T06:28:02.901Z,994.97
2018-04-29T06:29:02.886Z,995.02
2018-04-29T06:30:55.761Z,995.06
2018-04-29T06:31:55.832Z,995.06
2018-04-29T06:33:49.584Z,995.01
2018-04-29T06:34:49.578Z,995.01
2018-04-29T06:36:42.447Z,995.01
2018-04-29T06:37:42.423Z,994.93
2018-04-29T06:39:35.287Z,994.86
2018-04-29T06:40:35.285Z,994.86
2018-04-29T06:42:28.151Z,994.74
2018-04-29T06:43:28.132Z,994.80
2018-04-29T06:45:20.990Z,994.72
2018-04-29T06:46:20.975Z,994.74
2018-04-29T06:48:13.930Z,994.71
2018-04-29T06:49:13.832Z,994.74
2018-04-29T06:51:06.696Z,994.68
2018-04-29T06:52:06.684Z,994.65
2018-04-29T06:53:59.566Z,994.68
2018-04-29T06:54:59.541Z,994.67
2018-04-29T06:56:52.414Z,994.72
2018-04-29T06:57:52.401Z,994.69
2018-04-29T06:59:45.286Z,994.65
2018-04-29T07:00:45.308Z,994.63
2018-04-29T07:02:38.130Z,994.60
2018-04-29T07:03:38.116Z,994.56
2018-04-29T07:05:31.002Z,994.62
2018-04-29T07:06:30.983Z,994.58
2018-04-29T07:08:23.852Z,994.64
2018-04-29T07:09:23.849Z,994.62
2018-04-29T07:11:16.726Z,994.63
2018-04-29T07:12:16.706Z,994.51
2018-04-29T07:14:09.593Z,994.48
2018-04-29T07:15:09.566Z,994.45
2018-04-29T07:17:02.447Z,994.47
2018-04-29T07:18:02.424Z,994.47
2018-04-29T07:19:55.302Z,994.38
2018-04-29T07:20:55.289Z,994.44
2018-04-29T07:22:48.168Z,994.58
2018-04-29T07:23:48.145Z,994.58
2018-04-29T07:25:41.014Z,994.45
2018-04-29T07:26:41.002Z,994.42
2018-04-29T07:28:33.885Z,994.54
2018-04-29T07:29:33.860Z,994.52
2018-04-29T07:31:26.730Z,994.59
2018-04-29T07:32:26.716Z,994.53
2018-04-29T07:34:19.598Z,994.52
2018-04-29T07:35:19.579Z,994.55
2018-04-29T07:37:12.448Z,994.56
2018-04-29T07:38:12.438Z,994.51
2018-04-29T07:40:05.333Z,994.53
2018-04-29T07:41:05.304Z,994.54
2018-04-29T07:42:58.176Z,994.57
2018-04-29T07:43:58.167Z,994.56
2018-04-29T07:45:51.065Z,994.53
2018-04-29T07:46:51.039Z,994.50
2018-04-29T07:48:43.916Z,994.47
2018-04-29T07:49:43.907Z,994.51
2018-04-29T07:51:36.799Z,994.57
2018-04-29T07:52:36.883Z,994.59
2018-04-29T07:54:29.660Z,994.64
2018-04-29T07:55:29.654Z,994.68
2018-04-29T07:57:22.546Z,994.63
2018-04-29T07:58:22.528Z,994.77
2018-04-29T08:00:15.413Z,994.57
2018-04-29T08:01:15.406Z,994.54
2018-04-29T08:03:08.297Z,994.48
2018-04-29T08:04:08.278Z,994.58
2018-04-29T08:06:01.153Z,994.65
2018-04-29T08:07:01.145Z,994.77
2018-04-29T08:08:54.034Z,994.65
2018-04-29T08:09:54.012Z,994.71
2018-04-29T08:11:46.889Z,994.70
2018-04-29T08:12:46.884Z,994.71
2018-04-29T08:14:39.768Z,994.73
2018-04-29T08:15:39.762Z,994.72
2018-04-29T08:17:32.632Z,994.73
2018-04-29T08:18:32.624Z,994.73
2018-04-29T08:20:25.514Z,994.68
2018-04-29T08:21:25.495Z,994.67
2018-04-29T08:23:18.373Z,994.74
2018-04-29T08:24:18.372Z,994.69
2018-04-29T08:26:11.282Z,994.70
2018-04-29T08:27:11.243Z,994.65
2018-04-29T08:29:04.125Z,994.69
2018-04-29T08:30:04.152Z,994.76
2018-04-29T08:31:57.023Z,994.73
2018-04-29T08:32:57.005Z,994.73
2018-04-29T08:34:49.884Z,994.73
2018-04-29T08:35:49.878Z,994.66
2018-04-29T08:37:42.771Z,994.71
2018-04-29T08:38:42.753Z,994.65
2018-04-29T08:40:35.639Z,994.69
2018-04-29T08:41:35.632Z,994.72
2018-04-29T08:43:28.525Z,994.98
2018-04-29T08:44:28.510Z,995.42
2018-04-29T08:46:21.394Z,995.92
2018-04-29T08:47:21.392Z,997.56
2018-04-29T08:49:14.286Z,998.19
2018-04-29T08:50:14.354Z,998.08
2018-04-29T08:52:07.152Z,998.64
2018-04-29T08:53:07.151Z,998.55
2018-04-29T08:55:00.112Z,998.48
2018-04-29T08:56:00.060Z,998.57
2018-04-29T08:57:52.919Z,999.65
2018-04-29T08:58:52.914Z,999.39
2018-04-29T09:00:45.809Z,999.60
2018-04-29T09:01:45.793Z,1000.09
2018-04-29T09:03:38.720Z,1000.35
2018-04-29T09:04:38.676Z,999.55
2018-04-29T09:06:31.590Z,1000.44
2018-04-29T09:07:31.573Z,999.84
2018-04-29T09:09:24.461Z,1000.18
2018-04-29T09:10:24.455Z,1000.08
2018-04-29T09:12:17.360Z,999.89
2018-04-29T09:13:17.347Z,1000.32
2018-04-29T09:15:10.236Z,999.92
2018-04-29T09:16:10.232Z,999.88
2018-04-29T09:18:03.174Z,1000.63
2018-04-29T09:19:03.155Z,1000.93
2018-04-29T09:20:56.060Z,1000.76
2018-04-29T09:21:56.054Z,1000.96
2018-04-29T09:23:48.949Z,1000.67
2018-04-29T09:24:48.959Z,1000.12
2018-04-29T09:26:41.824Z,1000.55
2018-04-29T09:27:41.825Z,1000.49
2018-04-29T09:29:34.721Z,1000.91
2018-04-29T09:30:34.706Z,1000.35
2018-04-29T09:32:27.601Z,999.84
2018-04-29T09:33:27.598Z,1000.59
2018-04-29T09:35:20.498Z,1000.25
2018-04-29T09:36:20.483Z,1000.25
2018-04-29T09:38:13.468Z,1000.31
2018-04-29T09:39:13.369Z,999.87
2018-04-29T09:41:06.269Z,1000.04
2018-04-29T09:42:06.255Z,999.75
2018-04-29T09:43:59.137Z,999.56
2018-04-29T09:44:59.134Z,999.62
2018-04-29T09:46:52.034Z,998.89
2018-04-29T09:47:52.017Z,999.11
2018-04-29T09:49:44.901Z,998.28
2018-04-29T09:50:44.898Z,998.03
2018-04-29T09:52:37.844Z,998.13
2018-04-29T09:53:37.828Z,998.12
2018-04-29T09:55:30.710Z,997.09
2018-04-29T09:56:30.706Z,997.10
2018-04-29T09:58:23.607Z,996.92
2018-04-29T09:59:23.591Z,996.72
2018-04-29T10:01:16.556Z,996.23
2018-04-29T10:02:16.476Z,996.17
2018-04-29T10:04:09.376Z,996.05
2018-04-29T10:05:09.362Z,996.17
2018-04-29T10:07:02.246Z,995.52
2018-04-29T10:08:02.240Z,995.63
2018-04-29T10:09:55.136Z,995.32
2018-04-29T10:10:55.118Z,995.30
2018-04-29T10:12:48.047Z,994.94
2018-04-29T10:13:48.044Z,994.81
2018-04-29T10:15:40.941Z,994.71
2018-04-29T10:16:40.923Z,994.62
2018-04-29T10:18:33.811Z,994.50
2018-04-29T10:19:33.805Z,994.33
2018-04-29T10:21:26.766Z,994.22
2018-04-29T10:22:26.690Z,994.29
2018-04-29T10:24:19.573Z,994.23
2018-04-29T10:25:19.570Z,994.19
2018-04-29T10:27:12.475Z,994.08
2018-04-29T10:28:12.450Z,994.01
2018-04-29T10:30:05.335Z,993.84
2018-04-29T10:31:05.333Z,993.95
2018-04-29T10:32:58.274Z,993.87
2018-04-29T10:33:58.212Z,994.00
2018-04-29T10:35:51.095Z,993.83
2018-04-29T10:36:51.092Z,993.81
2018-04-29T10:38:43.994Z,993.77
2018-04-29T10:39:43.986Z,993.78
2018-04-29T10:41:36.860Z,993.76
2018-04-29T10:42:36.857Z,993.72
2018-04-29T10:44:29.755Z,993.76
2018-04-29T10:45:29.736Z,993.61
2018-04-29T10:47:22.672Z,993.49
2018-04-29T10:48:22.621Z,993.54
2018-04-29T10:50:15.526Z,993.66
2018-04-29T10:51:15.505Z,993.75
2018-04-29T10:53:08.390Z,993.67
2018-04-29T10:54:08.388Z,993.65
2018-04-29T10:56:01.286Z,993.68
2018-04-29T10:57:01.268Z,993.72
2018-04-29T10:58:54.157Z,993.65
2018-04-29T10:59:54.150Z,993.72
2018-04-29T11:01:47.048Z,993.61
2018-04-29T11:02:47.035Z,993.54
2018-04-29T11:04:39.916Z,993.43
2018-04-29T11:05:39.914Z,993.40
2018-04-29T11:07:32.809Z,993.51
2018-04-29T11:08:32.804Z,993.48
2018-04-29T11:10:25.677Z,993.45
2018-04-29T11:11:25.674Z,993.37
2018-04-29T11:13:18.571Z,993.23
2018-04-29T11:14:18.554Z,993.29
2018-04-29T11:16:11.439Z,993.27
2018-04-29T11:17:11.435Z,993.18
2018-04-29T11:19:04.331Z,993.15
2018-04-29T11:20:04.313Z,993.13
2018-04-29T11:21:57.198Z,993.01
2018-04-29T11:22:57.196Z,992.84
2018-04-29T11:24:50.092Z,992.57
2018-04-29T11:25:50.075Z,992.45
2018-04-29T11:27:42.953Z,992.35
2018-04-29T11:28:43.032Z,992.40
2018-04-29T11:30:35.843Z,992.67
2018-04-29T11:31:35.826Z,993.18
2018-04-29T11:33:28.710Z,994.36
2018-04-29T11:34:28.707Z,994.26
2018-04-29T11:36:21.599Z,993.89
2018-04-29T11:37:21.583Z,993.65
2018-04-29T11:39:14.462Z,993.77
2018-04-29T11:40:14.464Z,993.88
2018-04-29T11:42:07.354Z,993.77
2018-04-29T11:43:07.347Z,993.90
2018-04-29T11:45:00.220Z,994.02
2018-04-29T11:46:00.216Z,994.21
2018-04-29T11:47:53.112Z,994.08
2018-04-29T11:48:53.096Z,993.65
2018-04-29T11:50:45.977Z,992.99
2018-04-29T11:51:45.970Z,992.80
2018-04-29T11:53:38.868Z,992.60
2018-04-29T11:54:38.849Z,992.34
2018-04-29T11:56:31.734Z,992.25
2018-04-29T11:57:31.728Z,992.32
2018-04-29T11:59:24.636Z,992.30
2018-04-29T12:00:24.604Z,992.21
2018-04-29T12:02:17.479Z,992.26
2018-04-29T12:03:17.475Z,992.22
2018-04-29T12:05:10.373Z,992.07
2018-04-29T12:06:10.345Z,992.11
2018-04-29T12:08:03.234Z,992.00
2018-04-29T12:09:03.228Z,992.02
2018-04-29T12:10:56.124Z,991.83
2018-04-29T12:11:56.106Z,991.94
2018-04-29T12:13:48.983Z,991.90
2018-04-29T12:14:48.975Z,992.00
2018-04-29T12:16:41.867Z,991.78
2018-04-29T12:17:41.847Z,991.72
2018-04-29T12:19:34.722Z,991.70
2018-04-29T12:20:34.716Z,991.63
2018-04-29T12:22:27.609Z,991.72
2018-04-29T12:23:27.588Z,991.74
2018-04-29T12:25:20.469Z,991.72
2018-04-29T12:26:20.461Z,991.67
2018-04-29T12:28:13.355Z,991.45
2018-04-29T12:29:13.330Z,991.43
2018-04-29T12:31:06.211Z,991.49
2018-04-29T12:32:06.203Z,991.47
2018-04-29T12:33:59.100Z,991.40
2018-04-29T12:34:59.075Z,991.41
2018-04-29T12:36:51.958Z,991.34
2018-04-29T12:37:51.949Z,991.39
2018-04-29T12:39:44.842Z,991.25
2018-04-29T12:40:44.822Z,991.15
2018-04-29T12:42:37.698Z,991.12
2018-04-29T12:43:37.693Z,991.11
2018-04-29T12:45:30.587Z,991.04
2018-04-29T12:46:30.565Z,991.07
2018-04-29T12:48:23.445Z,990.90
2018-04-29T12:49:23.439Z,990.79
2018-04-29T12:51:16.413Z,990.86
2018-04-29T12:52:16.441Z,990.84
2018-04-29T12:54:09.882Z,990.80
2018-04-29T12:55:09.299Z,990.86
2018-04-29T12:57:02.292Z,990.75
2018-04-29T12:58:02.270Z,990.69
2018-04-29T12:59:55.169Z,990.62
2018-04-29T13:00:55.159Z,990.63
2018-04-29T13:02:48.050Z,990.52
2018-04-29T13:03:48.031Z,990.44
2018-04-29T13:05:40.918Z,990.35
2018-04-29T13:06:40.899Z,990.32
2018-04-29T13:08:33.791Z,990.38
2018-04-29T13:09:33.770Z,990.28
2018-04-29T13:11:26.643Z,990.26
2018-04-29T13:12:26.635Z,990.17
2018-04-29T13:14:19.526Z,990.17
2018-04-29T13:15:19.506Z,990.09
2018-04-29T13:17:12.384Z,989.99
2018-04-29T13:18:12.376Z,989.98
2018-04-29T13:20:05.265Z,989.91
2018-04-29T13:21:05.243Z,989.93
2018-04-29T13:22:58.122Z,989.79
2018-04-29T13:23:58.112Z,989.81
2018-04-29T13:25:51.002Z,989.81
2018-04-29T13:26:50.982Z,989.76
2018-04-29T13:28:43.858Z,989.80
2018-04-29T13:29:43.849Z,989.78
2018-04-29T13:31:36.736Z,989.72
2018-04-29T13:32:36.713Z,989.79
2018-04-29T13:34:29.597Z,989.70
2018-04-29T13:35:29.598Z,989.69
2018-04-29T13:37:22.472Z,989.67
2018-04-29T13:38:22.451Z,989.56
2018-04-29T13:40:15.326Z,989.59
2018-04-29T13:41:15.325Z,989.47
2018-04-29T13:43:08.224Z,989.54
2018-04-29T13:44:08.200Z,989.46
2018-04-29T13:46:01.074Z,989.39
2018-04-29T13:47:01.064Z,989.41
2018-04-29T13:48:53.956Z,989.33
2018-04-29T13:49:53.934Z,989.24
2018-04-29T13:51:46.810Z,989.31
2018-04-29T13:52:46.802Z,989.23
2018-04-29T13:54:39.689Z,989.17
2018-04-29T13:55:39.667Z,989.19
2018-04-29T13:57:32.539Z,989.04
2018-04-29T13:58:32.530Z,989.07
2018-04-29T14:00:25.423Z,989.00
2018-04-29T14:01:25.401Z,988.95
2018-04-29T14:03:18.282Z,988.89
2018-04-29T14:04:18.264Z,988.81
2018-04-29T14:06:11.154Z,988.74
2018-04-29T14:07:11.135Z,988.68
2018-04-29T14:09:04.010Z,988.61
2018-04-29T14:10:04.001Z,988.63
2018-04-29T14:11:56.891Z,988.62
2018-04-29T14:12:56.869Z,988.59
2018-04-29T14:14:49.751Z,988.53
2018-04-29T14:15:49.742Z,988.57
2018-04-29T14:17:42.628Z,988.63
2018-04-29T14:18:42.610Z,988.67
2018-04-29T14:20:35.478Z,988.60
2018-04-29T14:21:35.469Z,988.61
2018-04-29T14:23:28.429Z,988.64
2018-04-29T14:24:28.336Z,988.63
2018-04-29T14:26:21.205Z,988.58
2018-04-29T14:27:21.196Z,988.58
2018-04-29T14:29:14.097Z,988.56
2018-04-29T14:30:14.060Z,988.58
2018-04-29T14:32:06.940Z,988.52
2018-04-29T14:33:06.931Z,988.48
2018-04-29T14:34:59.819Z,988.51
2018-04-29T14:35:59.804Z,988.44
2018-04-29T14:37:52.675Z,988.39
2018-04-29T14:38:52.667Z,988.43
2018-04-29T14:40:45.551Z,988.33
2018-04-29T14:41:45.534Z,988.27
2018-04-29T14:43:38.397Z,988.22
2018-04-29T14:44:38.388Z,988.14
2018-04-29T14:46:31.275Z,988.08
2018-04-29T14:47:31.251Z,988.06
2018-04-29T14:49:24.132Z,988.00
2018-04-29T14:50:24.114Z,987.95
2018-04-29T14:52:17.007Z,987.83
2018-04-29T14:53:16.980Z,987.88
2018-04-29T14:55:09.856Z,987.85
2018-04-29T14:56:09.842Z,987.82
2018-04-29T14:58:02.729Z,987.71
2018-04-29T14:59:02.704Z,987.71
2018-04-29T15:00:55.575Z,987.64
2018-04-29T15:01:55.569Z,987.63
2018-04-29T15:03:48.449Z,987.57
2018-04-29T15:04:48.425Z,987.57
2018-04-29T15:06:41.296Z,987.50
2018-04-29T15:07:41.285Z,987.46
2018-04-29T15:09:34.167Z,987.45
2018-04-29T15:10:34.210Z,987.41
2018-04-29T15:12:27.014Z,987.37
2018-04-29T15:13:27.006Z,987.28
2018-04-29T15:15:19.885Z,987.27
2018-04-29T15:16:19.862Z,987.24
2018-04-29T15:18:12.733Z,987.24
2018-04-29T15:19:12.722Z,987.24
2018-04-29T15:21:05.673Z,987.21
2018-04-29T15:22:05.589Z,987.17
2018-04-29T15:23:58.460Z,987.13
2018-04-29T15:24:58.448Z,987.09
2018-04-29T15:26:51.329Z,987.05
2018-04-29T15:27:51.307Z,987.03
2018-04-29T15:29:44.186Z,986.93
2018-04-29T15:30:44.176Z,986.96
2018-04-29T15:32:37.060Z,986.86
2018-04-29T15:33:37.035Z,986.80
2018-04-29T15:35:29.983Z,986.71
2018-04-29T15:36:29.895Z,986.69
2018-04-29T15:38:22.791Z,986.67
2018-04-29T15:39:22.767Z,986.64
2018-04-29T15:41:15.637Z,986.59
2018-04-29T15:42:15.628Z,986.57
2018-04-29T15:44:08.510Z,986.54
2018-04-29T15:45:08.487Z,986.58
2018-04-29T15:47:01.363Z,986.57
2018-04-29T15:48:01.354Z,986.53
2018-04-29T15:49:54.237Z,986.49
2018-04-29T15:50:54.208Z,986.51
2018-04-29T15:52:47.089Z,986.50
2018-04-29T15:53:47.069Z,986.46
2018-04-29T15:55:39.951Z,986.44
2018-04-29T15:56:39.928Z,986.41
2018-04-29T15:58:32.801Z,986.34
2018-04-29T15:59:32.840Z,986.31
2018-04-29T16:01:25.679Z,986.27
2018-04-29T16:02:25.648Z,986.25
2018-04-29T16:04:18.519Z,986.24
2018-04-29T16:05:18.505Z,986.23
2018-04-29T16:07:11.386Z,986.17
2018-04-29T16:08:11.363Z,986.16
2018-04-29T16:10:04.234Z,986.12
2018-04-29T16:11:04.221Z,986.07
2018-04-29T16:12:57.103Z,986.05
2018-04-29T16:13:57.081Z,986.02
2018-04-29T16:15:49.949Z,986.00
2018-04-29T16:16:49.940Z,985.98
2018-04-29T16:18:42.833Z,986.00
2018-04-29T16:19:42.807Z,985.99
2018-04-29T16:21:35.677Z,985.98
2018-04-29T16:22:35.666Z,985.96
2018-04-29T16:24:28.556Z,985.94
2018-04-29T16:25:28.532Z,985.93
2018-04-29T16:27:21.405Z,985.87
2018-04-29T16:28:21.389Z,985.87
2018-04-29T16:30:14.275Z,985.86
2018-04-29T16:31:14.251Z,985.82
2018-04-29T16:33:07.120Z,985.78
2018-04-29T16:34:07.112Z,985.78
2018-04-29T16:35:59.987Z,985.74
2018-04-29T16:36:59.968Z,985.69
2018-04-29T16:38:52.841Z,985.68
2018-04-29T16:39:52.826Z,985.69
2018-04-29T16:41:45.723Z,985.70
2018-04-29T16:42:45.692Z,985.69
2018-04-29T16:44:38.555Z,985.68
2018-04-29T16:45:38.543Z,985.69
2018-04-29T16:47:31.427Z,985.65
2018-04-29T16:48:31.404Z,985.60
2018-04-29T16:50:24.273Z,985.57
2018-04-29T16:51:24.261Z,985.49
2018-04-29T16:53:17.146Z,985.48
2018-04-29T16:54:17.126Z,985.47
2018-04-29T16:56:10.066Z,985.38
2018-04-29T16:57:09.982Z,985.36
2018-04-29T16:59:02.862Z,985.37
2018-04-29T17:00:02.840Z,985.34
2018-04-29T17:01:55.710Z,985.37
2018-04-29T17:02:55.700Z,985.33
2018-04-29T17:04:48.579Z,985.38
2018-04-29T17:05:48.558Z,985.32
2018-04-29T17:07:41.423Z,985.25
2018-04-29T17:08:41.412Z,985.26
2018-04-29T17:10:34.313Z,985.22
2018-04-29T17:11:34.286Z,985.19
2018-04-29T17:13:27.155Z,985.14
2018-04-29T17:14:27.142Z,985.11
2018-04-29T17:16:20.032Z,985.09
2018-04-29T17:17:20.014Z,985.10
2018-04-29T17:19:12.890Z,985.05
2018-04-29T17:20:12.882Z,985.05
2018-04-29T17:22:05.758Z,985.00
2018-04-29T17:23:05.734Z,984.99
2018-04-29T17:24:58.603Z,984.96
2018-04-29T17:25:58.591Z,984.95
2018-04-29T17:27:51.477Z,984.93
2018-04-29T17:28:51.451Z,984.91
2018-04-29T17:30:44.329Z,984.90
2018-04-29T17:31:44.308Z,984.85
2018-04-29T17:33:37.196Z,984.83
2018-04-29T17:34:37.172Z,984.82
2018-04-29T17:36:30.061Z,984.78
2018-04-29T17:37:30.025Z,984.75
2018-04-29T17:39:22.901Z,984.72
2018-04-29T17:40:22.877Z,984.70
2018-04-29T17:42:15.742Z,984.70
2018-04-29T17:43:15.731Z,984.70
2018-04-29T17:45:08.611Z,984.64
2018-04-29T17:46:08.584Z,984.65
2018-04-29T17:48:01.453Z,984.59
2018-04-29T17:49:01.447Z,984.54
2018-04-29T17:50:54.321Z,984.56
2018-04-29T17:51:54.297Z,984.51
2018-04-29T17:53:47.167Z,984.47
2018-04-29T17:54:47.152Z,984.51
2018-04-29T17:56:40.031Z,984.46